Overview Statistics Trail Chart Weather Telemetry Raw packets
 

This is the latest recevied weather packets stored in our database for station/object KG5MMT-12. If no packets are shown the sender has not sent any weather packets the latest 10 day(s).

<< 5 6 7 8 9 10 11 >>
Time Temp. Humidity Pressure Rain* Wind** Luminosity Snow
1788652438 19.44° C 86% 0 hPa 0 mm - - -
1788652138 19.44° C 86% 0 hPa 0 mm - - -
1788651838 19.44° C 86% 0 hPa 0 mm - - -
1788651538 19.44° C 86% 0 hPa 0 mm - - -
1788651238 19.44° C 87% 0 hPa 0.25 mm - - -
1788650938 18.89° C 87% 0 hPa 0.51 mm - - -
1788650638 18.89° C 88% 0 hPa 0.51 mm - - -
1788650338 18.89° C 87% 0 hPa 0.51 mm - - -
1788650038 18.89° C 86% 0 hPa 0.51 mm - - -
1788649738 18.89° C 85% 0 hPa 0.51 mm - - -
1788649438 18.89° C 85% 0 hPa 0.51 mm - - -
1788649138 19.44° C 86% 0 hPa 0.51 mm - - -
1788648838 19.44° C 85% 0 hPa 0.51 mm - - -
1788648538 20° C 83% 0 hPa 0.51 mm - - -
1788648238 20.56° C 82% 0 hPa 0.51 mm - - -
1788647938 21.11° C 79% 0 hPa 0.51 mm - - -
1788647638 21.67° C 74% 0 hPa 0.25 mm - - -
1788647338 22.78° C 66% 0 hPa 0 mm - - -
1788647038 23.33° C 61% 0 hPa 0 mm - - -
1788646738 23.89° C 55% 0 hPa 0 mm - - -
1788646438 25° C 53% 0 hPa 0 mm - - -
1788645838 25.56° C 42% 0 hPa 0 mm - - -
1788645538 25.56° C 39% 0 hPa 0 mm - - -
1788645238 25.56° C 39% 0 hPa 0 mm - - -
1788644945 26.11° C 39% 0 hPa 0 mm - - -

* Rain latest hour (hover to see other rain measurements)
** Current wind speed in m/s (hover to see current wind gust speed)